Time;durP1;ratioP1;P1;durP2;ratioP2;P2;SDS_P1;SDS_P2;PMS_P1;PMS_P2;Temp;Humidity;BMP_temperature;BMP_pressure;BME280_temperature;BME280_humidity;BME280_pressure;Samples;Min_cycle;Max_cycle;Signal;HPM_P1;HPM_P2
2022/05/31 00:00:50;;;;;;;1.87;1.27;;;15.90;99.90;;;;;;6250511;22;20210;-92
2022/05/31 00:03:22;;;;;;;3.07;1.40;;;16.00;99.90;;;;;;6249820;23;20178;-93
2022/05/31 00:05:55;;;;;;;1.90;1.00;;;16.20;99.90;;;;;;6250140;23;20251;-92
2022/05/31 00:08:26;;;;;;;4.70;1.40;;;16.20;99.90;;;;;;6249665;23;20199;-92
2022/05/31 00:10:58;;;;;;;2.40;1.30;;;16.00;99.90;;;;;;6264659;22;20198;-93
2022/05/31 00:18:53;;;;;;;3.33;1.40;;;16.30;99.90;;;;;;6235075;22;20211;-94
2022/05/31 00:21:29;;;;;;;2.53;1.20;;;16.30;99.90;;;;;;6252822;22;20214;-92
2022/05/31 00:24:00;;;;;;;2.40;1.30;;;16.20;99.90;;;;;;6251608;22;20190;-92
2022/05/31 00:26:32;;;;;;;2.20;1.17;;;16.10;99.90;;;;;;6250505;22;20179;-92
2022/05/31 00:29:05;;;;;;;2.10;1.10;;;16.20;99.90;;;;;;6253309;22;20179;-92
2022/05/31 00:31:37;;;;;;;2.43;1.10;;;16.30;99.90;;;;;;6250147;22;20182;-92
2022/05/31 00:34:10;;;;;;;2.07;1.20;;;16.10;99.90;;;;;;6254310;23;20178;-91
2022/05/31 00:36:46;;;;;;;4.33;1.27;;;16.20;99.90;;;;;;6252812;22;20168;-92
2022/05/31 00:39:19;;;;;;;1.93;1.07;;;16.20;99.90;;;;;;6249998;23;20179;-92
2022/05/31 00:42:02;;;;;;;2.27;1.03;;;16.20;99.90;;;;;;6250315;23;20192;-93
2022/05/31 00:44:37;;;;;;;2.53;1.10;;;16.00;99.90;;;;;;6250543;23;20187;-93
2022/05/31 00:47:19;;;;;;;2.10;1.20;;;16.00;99.90;;;;;;6251178;22;20202;-92
2022/05/31 00:49:53;;;;;;;1.97;1.43;;;15.90;99.90;;;;;;6248902;23;20202;-92
2022/05/31 00:52:29;;;;;;;1.97;0.83;;;15.90;99.90;;;;;;6250416;23;20249;-92
2022/05/31 00:55:04;;;;;;;2.10;1.10;;;15.90;99.90;;;;;;6250090;22;20225;-92
2022/05/31 00:57:37;;;;;;;1.87;1.20;;;15.90;99.90;;;;;;6252719;22;20175;-92
2022/05/31 01:00:16;;;;;;;2.73;1.10;;;15.90;99.90;;;;;;6258146;22;20183;-92
2022/05/31 01:02:49;;;;;;;2.23;1.47;;;15.80;99.90;;;;;;6253522;22;20243;-92
2022/05/31 01:05:21;;;;;;;2.60;1.50;;;15.80;99.90;;;;;;6253736;22;20168;-92
2022/05/31 01:07:53;;;;;;;2.07;1.20;;;15.90;99.90;;;;;;6251248;22;20200;-92
2022/05/31 01:10:25;;;;;;;1.20;1.07;;;15.90;99.90;;;;;;6250343;23;20180;-92
2022/05/31 01:12:56;;;;;;;5.07;1.30;;;16.10;99.90;;;;;;6251635;22;20874;-92
2022/05/31 01:15:30;;;;;;;1.97;1.00;;;16.10;99.90;;;;;;6250582;22;20168;-93
2022/05/31 01:18:01;;;;;;;4.37;2.80;;;16.20;99.90;;;;;;6251743;23;20652;-93
2022/05/31 01:20:34;;;;;;;1.87;1.20;;;16.20;99.90;;;;;;6249687;22;20733;-92
2022/05/31 01:23:11;;;;;;;5.27;2.20;;;16.10;99.90;;;;;;6249042;23;20253;-92
2022/05/31 01:25:59;;;;;;;2.03;1.40;;;16.00;99.90;;;;;;6250139;23;20171;-93
2022/05/31 01:28:43;;;;;;;2.53;1.43;;;16.00;99.90;;;;;;6255369;22;20156;-92
2022/05/31 01:31:19;;;;;;;1.93;1.20;;;16.00;99.90;;;;;;6250584;23;20176;-92
2022/05/31 01:33:55;;;;;;;1.70;1.10;;;16.00;99.90;;;;;;6253546;23;20186;-93
2022/05/31 01:36:36;;;;;;;1.87;1.10;;;16.10;99.90;;;;;;6268740;22;20183;-93
2022/05/31 01:39:12;;;;;;;1.47;1.07;;;16.10;99.90;;;;;;6266978;23;20175;-92
2022/05/31 01:44:35;;;;;;;1.67;0.93;;;16.30;99.90;;;;;;6195431;22;20219;-92
2022/05/31 01:47:07;;;;;;;4.80;1.50;;;16.30;99.90;;;;;;6251686;22;20175;-93
2022/05/31 01:49:42;;;;;;;1.83;1.20;;;16.20;99.90;;;;;;6258840;22;20242;-94
2022/05/31 01:52:16;;;;;;;2.37;1.20;;;16.10;99.90;;;;;;6256192;22;20239;-93
2022/05/31 01:54:49;;;;;;;3.20;1.30;;;16.00;99.90;;;;;;6258180;22;20238;-94
2022/05/31 01:57:23;;;;;;;2.67;1.10;;;15.90;99.90;;;;;;6256296;22;20172;-93
2022/05/31 01:59:58;;;;;;;2.37;1.10;;;15.90;99.90;;;;;;6255659;22;20498;-94
2022/05/31 02:02:30;;;;;;;3.13;1.40;;;15.70;99.90;;;;;;6256585;22;20199;-94
2022/05/31 02:05:01;;;;;;;1.30;1.00;;;15.60;99.90;;;;;;6257303;22;20172;-94
2022/05/31 02:07:35;;;;;;;3.47;1.50;;;15.50;99.90;;;;;;6256824;22;20196;-94
2022/05/31 02:10:08;;;;;;;1.87;1.23;;;15.40;99.90;;;;;;6257327;22;20189;-94
2022/05/31 02:12:40;;;;;;;2.53;1.27;;;15.20;99.90;;;;;;6262719;22;20180;-94
2022/05/31 02:15:12;;;;;;;1.80;1.40;;;15.00;99.90;;;;;;6255747;22;20175;-94
2022/05/31 02:17:44;;;;;;;2.17;1.30;;;14.90;99.90;;;;;;6263260;22;20175;-94
2022/05/31 02:20:16;;;;;;;3.13;1.20;;;14.80;99.90;;;;;;6267620;22;20152;-93
2022/05/31 02:22:53;;;;;;;2.40;1.13;;;14.60;99.90;;;;;;6268627;22;20203;-94
2022/05/31 02:25:26;;;;;;;3.30;1.30;;;14.60;99.90;;;;;;6268694;22;20163;-94
2022/05/31 02:27:58;;;;;;;2.33;1.70;;;14.50;99.90;;;;;;6270774;22;20168;-94
2022/05/31 02:30:31;;;;;;;2.57;1.40;;;14.50;99.90;;;;;;6273251;22;20176;-95
2022/05/31 02:33:03;;;;;;;3.90;1.40;;;14.40;99.90;;;;;;6274353;22;20190;-94
2022/05/31 02:35:35;;;;;;;2.23;1.43;;;14.50;99.90;;;;;;6273906;22;20206;-94
2022/05/31 02:38:10;;;;;;;2.57;1.47;;;14.40;99.90;;;;;;6272747;22;20175;-94
2022/05/31 02:40:42;;;;;;;3.37;1.60;;;14.20;99.90;;;;;;6257150;22;20225;-93
2022/05/31 02:43:14;;;;;;;6.47;1.63;;;14.10;99.90;;;;;;6267483;23;20238;-92
2022/05/31 02:45:45;;;;;;;2.27;1.47;;;14.10;99.90;;;;;;6271933;22;20170;-93
2022/05/31 02:48:20;;;;;;;2.80;1.43;;;14.00;99.90;;;;;;6273298;23;20159;-92
2022/05/31 02:53:44;;;;;;;3.90;1.40;;;14.00;99.90;;;;;;6272468;22;20184;-95
2022/05/31 02:56:17;;;;;;;4.10;1.60;;;13.90;99.90;;;;;;6270630;22;20176;-94
2022/05/31 02:58:52;;;;;;;2.10;1.23;;;13.80;99.90;;;;;;6245813;22;20547;-95
2022/05/31 03:01:29;;;;;;;2.80;1.30;;;13.80;99.90;;;;;;6269093;23;20191;-93
2022/05/31 03:04:03;;;;;;;2.33;1.50;;;13.80;99.90;;;;;;6265524;23;20171;-94
2022/05/31 03:06:36;;;;;;;2.20;1.20;;;13.80;99.90;;;;;;6254136;23;20257;-95
2022/05/31 03:09:10;;;;;;;1.60;1.23;;;13.70;99.90;;;;;;6259041;23;20172;-95
2022/05/31 03:11:49;;;;;;;2.63;1.20;;;13.60;99.90;;;;;;6263716;22;20187;-95
2022/05/31 03:14:41;;;;;;;2.00;1.10;;;13.50;99.90;;;;;;6255117;22;20179;-95
2022/05/31 03:17:16;;;;;;;1.47;0.93;;;13.40;99.90;;;;;;6258579;22;20167;-94
2022/05/31 03:19:51;;;;;;;2.40;1.37;;;13.40;99.90;;;;;;6266794;22;20175;-94
2022/05/31 03:22:28;;;;;;;1.83;1.40;;;13.30;99.90;;;;;;6243653;22;20187;-94
2022/05/31 03:25:06;;;;;;;2.23;1.50;;;13.20;99.90;;;;;;6264423;22;20171;-93
2022/05/31 03:27:38;;;;;;;1.90;1.20;;;13.10;99.90;;;;;;6254243;22;20171;-92
2022/05/31 03:30:10;;;;;;;2.67;1.70;;;13.00;99.90;;;;;;6258722;22;20184;-92
2022/05/31 03:32:42;;;;;;;1.50;1.40;;;12.90;99.90;;;;;;6257641;22;20550;-94
2022/05/31 03:35:13;;;;;;;1.97;1.33;;;12.70;99.90;;;;;;6263903;22;20226;-94
2022/05/31 03:37:45;;;;;;;1.50;1.30;;;12.60;99.90;;;;;;6256251;22;20230;-94
2022/05/31 03:43:16;;;;;;;3.17;1.30;;;12.40;99.90;;;;;;6249851;22;20211;-93
2022/05/31 03:45:47;;;;;;;2.70;1.50;;;12.30;99.90;;;;;;6272187;22;20186;-92
2022/05/31 03:48:19;;;;;;;2.40;1.50;;;12.30;99.90;;;;;;6272703;22;20156;-92
2022/05/31 03:51:00;;;;;;;2.33;1.50;;;12.20;99.90;;;;;;6266529;22;20176;-92
2022/05/31 03:53:35;;;;;;;3.13;1.73;;;12.10;99.90;;;;;;6264346;22;20222;-93
2022/05/31 03:56:12;;;;;;;3.40;1.87;;;12.10;99.90;;;;;;6261187;22;20168;-92
2022/05/31 03:58:44;;;;;;;2.33;1.47;;;12.00;99.90;;;;;;6264446;22;20176;-93
2022/05/31 04:01:18;;;;;;;2.00;1.43;;;11.90;99.90;;;;;;6267653;22;20175;-93
2022/05/31 04:03:50;;;;;;;3.67;2.00;;;11.80;99.90;;;;;;6266918;22;20243;-93
2022/05/31 04:06:23;;;;;;;2.77;2.50;;;11.70;99.90;;;;;;6268006;22;20196;-93
2022/05/31 04:08:55;;;;;;;7.73;3.83;;;11.60;99.90;;;;;;6266721;23;20231;-94
2022/05/31 04:11:30;;;;;;;4.37;3.63;;;11.60;99.90;;;;;;6265093;23;20191;-93
2022/05/31 04:14:03;;;;;;;6.60;3.20;;;11.50;99.90;;;;;;6268379;22;20171;-93
2022/05/31 04:16:36;;;;;;;3.43;2.80;;;11.40;99.90;;;;;;6269042;22;20210;-93
2022/05/31 04:19:08;;;;;;;6.57;3.37;;;11.40;99.90;;;;;;6264614;22;20181;-93
2022/05/31 04:21:41;;;;;;;5.23;3.20;;;11.30;99.90;;;;;;6265326;22;20184;-93
2022/05/31 04:24:14;;;;;;;4.93;3.03;;;11.30;99.90;;;;;;6268796;22;20171;-93
2022/05/31 04:26:49;;;;;;;5.47;3.77;;;11.20;99.90;;;;;;6272373;22;20168;-93
2022/05/31 04:29:20;;;;;;;7.43;4.47;;;11.20;99.90;;;;;;6268476;22;20194;-93
2022/05/31 04:31:52;;;;;;;4.57;3.40;;;11.20;99.90;;;;;;6272237;22;20151;-94
2022/05/31 04:34:24;;;;;;;3.83;2.67;;;11.20;99.90;;;;;;6273136;22;20156;-93
2022/05/31 04:36:56;;;;;;;3.47;3.13;;;11.20;99.90;;;;;;6272858;22;20163;-92
2022/05/31 04:39:28;;;;;;;3.73;2.50;;;11.10;99.90;;;;;;6272268;22;20186;-93
2022/05/31 04:42:05;;;;;;;4.60;3.30;;;11.10;99.90;;;;;;6269648;22;20164;-93
2022/05/31 04:44:38;;;;;;;8.10;5.90;;;11.10;99.90;;;;;;6270627;22;20168;-92
2022/05/31 04:47:10;;;;;;;7.13;5.47;;;11.00;99.90;;;;;;6255520;23;20164;-93
2022/05/31 04:49:41;;;;;;;5.10;3.50;;;11.10;99.90;;;;;;6255769;22;20168;-92
2022/05/31 04:52:13;;;;;;;5.30;2.80;;;11.00;99.90;;;;;;6256286;22;20164;-93
2022/05/31 04:54:44;;;;;;;3.30;3.00;;;11.00;99.90;;;;;;6259894;22;20179;-93
2022/05/31 04:57:19;;;;;;;8.90;7.97;;;11.00;99.90;;;;;;6227187;22;20211;-93
2022/05/31 04:59:52;;;;;;;25.27;19.43;;;11.00;99.90;;;;;;6267493;22;20175;-93
2022/05/31 05:02:24;;;;;;;23.50;17.07;;;10.90;99.90;;;;;;6268578;23;20298;-93
2022/05/31 05:04:57;;;;;;;16.40;12.50;;;11.00;99.90;;;;;;6240551;23;20196;-93
2022/05/31 05:07:32;;;;;;;9.60;6.70;;;10.90;99.90;;;;;;6260114;22;20171;-93
2022/05/31 05:10:03;;;;;;;6.53;5.40;;;10.90;99.90;;;;;;6251619;22;20183;-93
2022/05/31 05:12:38;;;;;;;5.33;4.83;;;10.90;99.90;;;;;;6255190;22;20176;-94
2022/05/31 05:15:11;;;;;;;5.53;4.80;;;10.80;99.90;;;;;;6259614;22;20179;-92
2022/05/31 05:17:42;;;;;;;7.53;6.77;;;10.80;99.90;;;;;;6257364;22;20172;-93
2022/05/31 05:20:15;;;;;;;17.30;13.97;;;10.80;99.90;;;;;;6258712;22;20686;-91
2022/05/31 05:22:46;;;;;;;17.20;14.43;;;10.80;99.90;;;;;;6252268;22;20249;-94
2022/05/31 05:25:17;;;;;;;11.13;9.10;;;10.70;99.90;;;;;;6253223;22;20490;-94
2022/05/31 05:27:50;;;;;;;8.90;7.33;;;10.70;99.90;;;;;;6252796;23;20610;-94
2022/05/31 05:33:19;;;;;;;18.13;11.03;;;10.60;99.90;;;;;;6217712;22;20266;-93
2022/05/31 05:35:54;;;;;;;14.37;9.70;;;10.50;99.90;;;;;;6254335;22;20250;-94
2022/05/31 05:38:25;;;;;;;5.47;2.90;;;10.50;99.90;;;;;;6254485;22;20168;-94
2022/05/31 05:40:56;;;;;;;3.30;2.50;;;10.50;99.90;;;;;;6251415;22;20238;-93
2022/05/31 05:43:30;;;;;;;2.83;2.20;;;10.50;99.90;;;;;;6252569;23;20199;-94
2022/05/31 05:46:02;;;;;;;3.57;2.40;;;10.40;99.90;;;;;;6256692;22;20232;-93
2022/05/31 05:48:33;;;;;;;2.70;2.17;;;10.40;99.90;;;;;;6264558;22;20246;-93
2022/05/31 05:51:14;;;;;;;2.50;2.30;;;10.40;99.90;;;;;;6272108;22;20160;-92
2022/05/31 05:53:45;;;;;;;2.57;2.27;;;10.40;99.90;;;;;;6272410;22;20180;-92
2022/05/31 05:56:17;;;;;;;3.83;2.43;;;10.30;99.90;;;;;;6267189;22;20168;-92
2022/05/31 05:58:51;;;;;;;3.77;2.43;;;10.30;99.90;;;;;;6261761;22;20247;-92
2022/05/31 06:01:28;;;;;;;2.50;2.30;;;10.20;99.90;;;;;;6261478;23;20223;-91
2022/05/31 06:04:22;;;;;;;3.07;2.20;;;10.20;99.90;;;;;;6251019;22;20275;-93
2022/05/31 06:07:01;;;;;;;3.37;2.07;;;10.20;99.90;;;;;;6263388;22;20186;-93
2022/05/31 06:09:39;;;;;;;3.27;2.20;;;10.20;99.90;;;;;;6262117;22;20168;-95
2022/05/31 06:12:16;;;;;;;3.03;2.10;;;10.20;99.90;;;;;;6262710;22;20168;-93
2022/05/31 06:14:57;;;;;;;3.07;2.47;;;10.20;99.90;;;;;;6266914;22;20175;-93
2022/05/31 06:17:34;;;;;;;3.90;2.73;;;10.10;99.90;;;;;;6256478;22;20252;-92
2022/05/31 06:20:10;;;;;;;8.10;2.93;;;10.10;99.90;;;;;;6257861;22;20180;-93
2022/05/31 06:22:43;;;;;;;5.87;2.37;;;10.10;99.90;;;;;;6265209;22;20179;-93
2022/05/31 06:25:18;;;;;;;4.17;2.57;;;10.10;99.90;;;;;;6269138;22;20179;-93
2022/05/31 06:27:49;;;;;;;2.70;2.27;;;10.00;99.90;;;;;;6268324;23;20171;-93
2022/05/31 06:30:23;;;;;;;2.50;2.27;;;10.00;99.90;;;;;;6263088;23;20233;-93
2022/05/31 06:32:55;;;;;;;2.37;2.13;;;10.00;99.90;;;;;;6258944;22;20168;-94
2022/05/31 06:35:26;;;;;;;3.77;2.07;;;9.90;99.90;;;;;;6257371;22;20233;-93
2022/05/31 06:37:57;;;;;;;2.30;1.90;;;9.90;99.90;;;;;;6252677;22;20180;-92
2022/05/31 06:40:29;;;;;;;2.00;1.80;;;9.90;99.90;;;;;;6256519;22;20179;-93
2022/05/31 06:43:00;;;;;;;2.37;1.50;;;9.90;99.90;;;;;;6254069;22;20182;-93
2022/05/31 06:45:33;;;;;;;2.33;2.00;;;9.90;99.90;;;;;;6256966;22;20267;-93
2022/05/31 06:48:06;;;;;;;3.20;1.93;;;9.80;99.90;;;;;;6254885;22;20171;-93
2022/05/31 06:50:39;;;;;;;2.33;2.13;;;9.80;99.90;;;;;;6252247;22;20187;-92
2022/05/31 06:59:01;;;;;;;2.07;1.87;;;9.70;99.90;;;;;;6251462;23;20245;-92
2022/05/31 07:01:37;;;;;;;2.13;1.90;;;9.70;99.90;;;;;;6249561;22;20176;-92
2022/05/31 07:04:08;;;;;;;4.97;2.30;;;9.60;99.90;;;;;;6251519;22;20207;-92
2022/05/31 07:06:40;;;;;;;2.10;1.90;;;9.60;99.90;;;;;;6252651;23;20174;-92
2022/05/31 07:09:12;;;;;;;4.70;2.23;;;9.60;99.90;;;;;;6253161;23;20164;-91
2022/05/31 07:11:43;;;;;;;2.13;1.80;;;9.50;99.90;;;;;;6252212;22;20187;-92
2022/05/31 07:14:15;;;;;;;2.60;1.97;;;9.50;99.90;;;;;;6254037;22;20198;-91
2022/05/31 07:16:51;;;;;;;2.47;1.77;;;9.50;99.90;;;;;;6261793;23;20176;-92
2022/05/31 07:19:24;;;;;;;3.90;2.00;;;9.40;99.90;;;;;;6257976;23;20181;-91
2022/05/31 07:22:17;;;;;;;2.67;2.00;;;9.40;99.90;;;;;;6255676;23;20210;-92
2022/05/31 07:24:48;;;;;;;3.17;2.13;;;9.40;99.90;;;;;;6251921;22;20660;-92
2022/05/31 07:27:20;;;;;;;2.17;1.93;;;9.40;99.90;;;;;;6252113;22;20182;-92
2022/05/31 07:29:52;;;;;;;3.87;2.37;;;9.40;99.90;;;;;;6251614;23;20167;-91
2022/05/31 07:32:29;;;;;;;5.30;2.30;;;9.40;99.90;;;;;;6253213;22;20278;-92
2022/05/31 07:35:23;;;;;;;2.97;2.40;;;9.40;99.90;;;;;;6255595;22;20203;-92
2022/05/31 07:37:54;;;;;;;3.03;2.20;;;9.40;99.90;;;;;;6252113;22;20167;-92
2022/05/31 07:40:26;;;;;;;4.17;2.50;;;9.30;99.90;;;;;;6252056;23;20176;-92
2022/05/31 07:42:58;;;;;;;5.07;2.40;;;9.30;99.90;;;;;;6227486;23;20180;-92
2022/05/31 07:45:30;;;;;;;3.40;2.60;;;9.30;99.90;;;;;;6251688;23;20204;-92
2022/05/31 07:48:04;;;;;;;5.40;2.40;;;9.30;99.90;;;;;;6251889;22;20182;-92
2022/05/31 07:50:40;;;;;;;3.57;2.67;;;9.20;99.90;;;;;;6255092;22;20230;-93
2022/05/31 07:53:13;;;;;;;3.13;2.83;;;9.20;99.90;;;;;;6251832;23;20170;-92
2022/05/31 07:55:44;;;;;;;6.97;3.10;;;9.20;99.90;;;;;;6251972;23;20590;-92
2022/05/31 07:58:35;;;;;;;3.77;2.27;;;9.20;99.90;;;;;;6266739;22;20187;-92
2022/05/31 08:01:10;;;;;;;3.13;2.33;;;9.20;99.90;;;;;;6265463;22;20171;-91
2022/05/31 08:03:44;;;;;;;3.87;2.93;;;9.20;99.90;;;;;;6269042;22;20226;-90
2022/05/31 08:06:17;;;;;;;4.30;2.50;;;9.20;99.90;;;;;;6269236;22;20194;-91
2022/05/31 08:08:49;;;;;;;3.47;2.57;;;9.20;99.90;;;;;;6266392;22;20179;-90
2022/05/31 08:11:23;;;;;;;5.93;2.83;;;9.10;99.90;;;;;;6254801;22;20180;-92
2022/05/31 08:13:55;;;;;;;3.03;2.50;;;9.10;99.90;;;;;;6252954;22;20175;-91
2022/05/31 08:16:29;;;;;;;4.63;2.40;;;9.10;99.90;;;;;;6260766;22;20241;-92
2022/05/31 08:19:04;;;;;;;3.00;2.60;;;9.00;99.90;;;;;;6262314;22;20171;-91
2022/05/31 08:21:36;;;;;;;3.23;2.43;;;9.00;99.90;;;;;;6260052;22;20186;-91
2022/05/31 08:24:09;;;;;;;3.90;2.40;;;8.90;99.90;;;;;;6256116;22;20242;-91
2022/05/31 08:27:01;;;;;;;2.87;2.60;;;9.00;99.90;;;;;;6258806;22;20709;-91
2022/05/31 08:29:33;;;;;;;3.10;2.40;;;8.90;99.90;;;;;;6253903;23;20285;-93
2022/05/31 08:32:04;;;;;;;4.53;2.70;;;8.90;99.90;;;;;;6249991;22;20465;-93
2022/05/31 08:34:38;;;;;;;4.13;2.70;;;8.90;99.90;;;;;;6255290;22;20243;-93
2022/05/31 08:37:09;;;;;;;3.70;2.90;;;8.90;99.90;;;;;;6255046;22;20255;-93
2022/05/31 08:39:44;;;;;;;2.70;2.50;;;8.90;99.90;;;;;;6250030;22;20258;-93
2022/05/31 08:42:19;;;;;;;5.27;2.87;;;8.90;99.90;;;;;;6251088;22;20478;-91
2022/05/31 08:44:58;;;;;;;4.47;3.00;;;8.90;99.90;;;;;;6250474;22;20205;-93
2022/05/31 08:47:37;;;;;;;4.83;2.80;;;8.90;99.90;;;;;;6251310;23;20183;-93
2022/05/31 08:53:26;;;;;;;3.50;2.83;;;8.80;99.90;;;;;;6251512;22;20225;-93
2022/05/31 08:58:55;;;;;;;6.53;3.67;;;8.80;99.90;;;;;;6251870;22;20282;-94
2022/05/31 09:01:29;;;;;;;4.43;3.50;;;8.80;99.90;;;;;;6248657;22;20644;-93
2022/05/31 09:04:14;;;;;;;4.20;3.40;;;8.70;99.90;;;;;;6249528;22;20199;-90
2022/05/31 09:06:52;;;;;;;7.37;3.30;;;8.70;99.90;;;;;;6250447;22;20740;-91
2022/05/31 09:09:28;;;;;;;4.17;3.60;;;8.70;99.90;;;;;;6250461;22;20199;-93
2022/05/31 09:12:04;;;;;;;4.77;3.43;;;8.70;99.90;;;;;;6250877;22;20668;-91
2022/05/31 09:14:49;;;;;;;7.63;3.50;;;8.70;99.90;;;;;;6252691;23;20202;-91
2022/05/31 09:17:29;;;;;;;6.67;3.60;;;8.70;99.90;;;;;;6254037;22;20172;-91
2022/05/31 09:20:05;;;;;;;6.73;3.90;;;8.70;99.90;;;;;;6250140;22;20164;-91
2022/05/31 09:22:40;;;;;;;6.13;3.73;;;8.70;99.90;;;;;;6250890;23;20167;-91
2022/05/31 09:25:13;;;;;;;3.97;3.47;;;8.70;99.90;;;;;;6252331;23;20207;-91
2022/05/31 09:27:46;;;;;;;4.57;3.63;;;8.70;99.90;;;;;;6252921;22;20183;-91
2022/05/31 09:30:25;;;;;;;5.00;3.40;;;8.70;99.90;;;;;;6251848;23;20176;-91
2022/05/31 09:33:11;;;;;;;6.40;4.20;;;8.60;99.90;;;;;;6249098;23;20175;-92
2022/05/31 09:35:55;;;;;;;5.23;3.80;;;8.60;99.90;;;;;;6254897;22;20202;-92
2022/05/31 09:39:13;;;;;;;5.60;4.00;;;8.60;99.90;;;;;;6253107;23;20229;-92
2022/05/31 09:41:50;;;;;;;5.90;3.50;;;8.60;99.90;;;;;;6251872;22;20164;-92
2022/05/31 09:44:35;;;;;;;7.90;4.13;;;8.60;99.90;;;;;;6253260;22;20176;-93
2022/05/31 09:47:14;;;;;;;3.90;3.50;;;8.70;99.90;;;;;;6252749;22;20179;-92
2022/05/31 09:49:48;;;;;;;5.70;3.53;;;8.70;99.90;;;;;;6252155;22;20168;-92
2022/05/31 09:52:30;;;;;;;5.87;3.80;;;8.70;99.90;;;;;;6252023;22;20589;-91
2022/05/31 09:58:08;;;;;;;4.17;3.73;;;8.80;99.90;;;;;;6252789;22;20176;-92
2022/05/31 10:01:01;;;;;;;8.23;3.33;;;8.80;99.90;;;;;;6252249;22;20176;-92
2022/05/31 10:03:39;;;;;;;5.80;3.73;;;8.80;99.90;;;;;;6254356;22;20202;-91
2022/05/31 10:06:17;;;;;;;5.07;3.70;;;8.80;99.90;;;;;;6257779;22;20212;-91
2022/05/31 10:08:51;;;;;;;4.00;3.60;;;8.90;99.90;;;;;;6268629;22;20155;-92
2022/05/31 10:11:34;;;;;;;4.90;4.00;;;8.90;99.90;;;;;;6273062;22;20224;-92
2022/05/31 10:14:08;;;;;;;6.53;3.37;;;8.90;99.90;;;;;;6272464;22;20164;-90
2022/05/31 10:16:42;;;;;;;4.70;3.63;;;9.00;99.90;;;;;;6271458;22;20172;-89
2022/05/31 10:19:24;;;;;;;4.63;3.90;;;9.00;99.90;;;;;;6269114;23;20229;-91
2022/05/31 10:21:56;;;;;;;4.77;4.00;;;9.00;99.90;;;;;;6265625;22;20175;-91
2022/05/31 10:24:31;;;;;;;5.10;3.53;;;9.00;99.90;;;;;;6263877;22;20180;-91
2022/05/31 10:27:13;;;;;;;5.50;3.77;;;9.00;99.90;;;;;;6264454;23;20195;-91
2022/05/31 10:29:51;;;;;;;3.90;3.40;;;9.00;99.90;;;;;;6263056;22;20202;-92
2022/05/31 10:32:32;;;;;;;5.37;4.00;;;9.00;99.90;;;;;;6258918;22;20461;-91
2022/05/31 10:35:15;;;;;;;4.10;3.70;;;9.10;99.90;;;;;;6254085;23;20222;-92
2022/05/31 10:37:57;;;;;;;4.03;3.60;;;9.10;99.90;;;;;;6254834;22;20168;-92
2022/05/31 10:40:43;;;;;;;5.33;3.93;;;9.00;99.90;;;;;;6255150;22;20168;-92
2022/05/31 10:43:36;;;;;;;5.37;3.77;;;9.00;99.90;;;;;;6258867;22;20167;-91
2022/05/31 10:46:13;;;;;;;4.03;3.63;;;9.00;99.90;;;;;;6256299;22;20192;-92
2022/05/31 10:48:49;;;;;;;6.67;3.50;;;9.00;99.90;;;;;;6251168;22;20175;-92
2022/05/31 10:51:32;;;;;;;6.20;3.77;;;9.00;99.90;;;;;;6253010;22;20274;-93
2022/05/31 10:54:26;;;;;;;5.50;3.90;;;9.00;99.90;;;;;;6253491;22;20164;-92
2022/05/31 10:57:10;;;;;;;5.43;3.73;;;9.00;99.90;;;;;;6254767;22;20182;-92
2022/05/31 10:59:49;;;;;;;4.63;3.80;;;9.00;99.90;;;;;;6253738;22;20237;-94
2022/05/31 11:02:42;;;;;;;5.57;4.10;;;8.90;99.90;;;;;;6254382;22;20171;-92
2022/05/31 11:05:15;;;;;;;7.60;4.10;;;8.90;99.90;;;;;;6256080;22;20191;-91
2022/05/31 11:13:49;;;;;;;5.53;4.10;;;8.80;99.90;;;;;;6256766;22;20176;-92
2022/05/31 11:16:34;;;;;;;5.40;4.30;;;8.80;99.90;;;;;;6252606;22;20668;-91
2022/05/31 11:19:18;;;;;;;4.90;4.30;;;8.80;99.90;;;;;;6257134;22;20176;-92
2022/05/31 11:22:09;;;;;;;7.23;5.30;;;8.80;99.90;;;;;;6251957;23;20188;-92
2022/05/31 11:24:59;;;;;;;5.33;4.73;;;8.70;99.90;;;;;;6251755;23;20673;-92
2022/05/31 11:27:39;;;;;;;6.90;4.73;;;8.70;99.90;;;;;;6250319;23;20218;-92
2022/05/31 11:30:21;;;;;;;7.27;4.90;;;8.60;99.90;;;;;;6250052;22;20197;-92
2022/05/31 11:33:17;;;;;;;6.20;4.77;;;8.60;99.90;;;;;;6250718;22;20183;-92
2022/05/31 11:35:58;;;;;;;5.70;4.53;;;8.50;99.90;;;;;;6249652;22;20187;-92
2022/05/31 11:38:41;;;;;;;6.67;4.80;;;8.50;99.90;;;;;;6254553;22;20172;-92
2022/05/31 11:41:21;;;;;;;5.57;4.10;;;8.40;99.90;;;;;;6250134;22;20172;-91
2022/05/31 11:44:30;;;;;;;4.87;4.00;;;8.50;99.90;;;;;;6250094;22;20249;-93
2022/05/31 11:47:09;;;;;;;5.27;3.70;;;8.40;99.90;;;;;;6250165;22;20273;-91
2022/05/31 11:49:50;;;;;;;4.93;3.90;;;8.50;99.90;;;;;;6249906;22;20214;-92
2022/05/31 11:52:40;;;;;;;4.37;3.57;;;8.50;99.90;;;;;;6250981;22;20239;-90
2022/05/31 11:55:30;;;;;;;4.57;3.60;;;8.50;99.90;;;;;;6251299;23;20236;-91
2022/05/31 11:58:18;;;;;;;5.77;3.53;;;8.50;99.90;;;;;;6249639;23;20191;-90
2022/05/31 12:01:03;;;;;;;4.30;3.30;;;8.40;99.90;;;;;;6250194;22;20564;-91
2022/05/31 12:03:41;;;;;;;6.03;3.60;;;8.40;99.90;;;;;;6250669;22;20677;-91
2022/05/31 12:06:23;;;;;;;5.63;3.80;;;8.50;99.90;;;;;;6251260;22;20199;-91
2022/05/31 12:09:00;;;;;;;6.87;3.53;;;8.50;99.90;;;;;;6253057;23;20203;-91
2022/05/31 12:11:37;;;;;;;4.60;3.80;;;8.50;99.90;;;;;;6250179;22;20626;-91
2022/05/31 12:14:12;;;;;;;5.00;3.60;;;8.50;99.90;;;;;;6251978;23;20175;-91
2022/05/31 12:16:44;;;;;;;5.47;3.63;;;8.50;99.90;;;;;;6254661;22;20637;-92
2022/05/31 12:19:24;;;;;;;5.57;3.80;;;8.60;99.90;;;;;;6268736;22;20167;-91
2022/05/31 12:22:04;;;;;;;6.20;3.53;;;8.70;99.90;;;;;;6271105;22;20175;-91
2022/05/31 12:24:46;;;;;;;4.60;3.60;;;8.70;99.90;;;;;;6262550;22;20590;-91
2022/05/31 12:27:22;;;;;;;4.27;3.47;;;8.70;99.90;;;;;;6252868;22;20245;-91
2022/05/31 12:30:00;;;;;;;3.63;3.33;;;8.80;99.90;;;;;;6250419;23;20319;-91
2022/05/31 12:32:42;;;;;;;4.97;3.40;;;8.80;99.90;;;;;;6250688;23;20179;-91
2022/05/31 12:35:56;;;;;;;3.40;3.10;;;8.90;99.90;;;;;;6251748;23;20175;-92
2022/05/31 12:38:31;;;;;;;5.30;3.53;;;9.00;99.90;;;;;;6250849;22;20176;-91
2022/05/31 12:41:03;;;;;;;6.13;3.50;;;9.00;99.90;;;;;;6250194;22;20202;-92
2022/05/31 12:43:57;;;;;;;5.00;4.00;;;9.00;99.90;;;;;;6250634;22;20180;-91
2022/05/31 12:46:47;;;;;;;7.73;3.73;;;9.10;99.90;;;;;;6250268;22;20529;-91
2022/05/31 12:49:26;;;;;;;6.90;4.07;;;9.10;99.90;;;;;;6251002;22;20198;-92
2022/05/31 12:55:56;;;;;;;5.77;4.00;;;9.20;99.90;;;;;;6250212;22;20176;-92
2022/05/31 12:58:50;;;;;;;7.40;5.13;;;9.30;99.90;;;;;;6243066;23;20186;-92
2022/05/31 13:01:37;;;;;;;6.17;4.70;;;9.30;99.90;;;;;;6250133;22;20460;-93
2022/05/31 13:04:20;;;;;;;6.43;4.67;;;9.40;99.90;;;;;;6251442;22;20183;-92
2022/05/31 13:07:13;;;;;;;7.03;5.03;;;9.40;99.90;;;;;;6247845;22;20226;-92
2022/05/31 13:09:48;;;;;;;9.07;5.43;;;9.50;99.90;;;;;;6249502;22;20164;-92
2022/05/31 13:21:15;;;;;;;6.73;4.73;;;9.70;99.90;;;;;;6248315;22;20194;-92
2022/05/31 13:24:15;;;;;;;5.53;4.70;;;9.80;99.90;;;;;;6250588;23;20251;-91
2022/05/31 13:26:47;;;;;;;7.23;4.70;;;9.90;99.90;;;;;;6251995;22;20246;-92
2022/05/31 13:29:21;;;;;;;5.77;4.37;;;9.90;99.90;;;;;;6255877;23;20168;-91
2022/05/31 13:31:57;;;;;;;8.60;5.00;;;9.90;99.90;;;;;;6267144;22;20244;-91
2022/05/31 13:34:34;;;;;;;6.80;4.40;;;9.90;99.90;;;;;;6269552;22;20233;-93
2022/05/31 13:37:16;;;;;;;6.07;4.47;;;10.00;99.90;;;;;;6266974;23;20179;-92
2022/05/31 13:39:50;;;;;;;8.20;4.60;;;10.10;99.90;;;;;;6248924;22;20248;-92
2022/05/31 13:42:29;;;;;;;8.00;4.50;;;10.20;99.90;;;;;;6249291;23;20262;-92
2022/05/31 13:45:06;;;;;;;6.37;4.27;;;10.20;99.90;;;;;;6252565;23;20175;-93
2022/05/31 13:47:49;;;;;;;6.80;4.63;;;10.30;99.90;;;;;;6228567;23;20192;-92
2022/05/31 13:50:24;;;;;;;7.53;4.13;;;10.30;99.90;;;;;;6258497;22;20312;-92
2022/05/31 13:52:56;;;;;;;5.80;3.90;;;10.30;99.90;;;;;;6257632;22;20206;-93
2022/05/31 13:55:30;;;;;;;5.10;3.90;;;10.40;99.90;;;;;;6254765;22;20168;-93
2022/05/31 13:58:03;;;;;;;7.13;4.30;;;10.40;99.90;;;;;;6256023;22;20168;-93
2022/05/31 14:00:42;;;;;;;5.97;3.30;;;10.40;99.90;;;;;;6252265;22;20210;-93
2022/05/31 14:03:24;;;;;;;3.47;2.80;;;10.50;99.90;;;;;;6252409;23;20199;-93
2022/05/31 14:06:03;;;;;;;3.30;3.00;;;10.50;99.90;;;;;;6254231;22;20199;-92
2022/05/31 14:08:49;;;;;;;3.43;3.13;;;10.50;99.90;;;;;;6255873;22;20192;-93
2022/05/31 14:11:25;;;;;;;3.87;2.47;;;10.60;99.90;;;;;;6252622;23;20160;-92
2022/05/31 14:13:59;;;;;;;2.97;2.23;;;10.70;99.90;;;;;;6251257;23;20259;-93
2022/05/31 14:16:35;;;;;;;2.67;2.47;;;10.70;99.90;;;;;;6253772;23;20167;-92
2022/05/31 14:19:20;;;;;;;3.83;2.20;;;10.70;99.90;;;;;;6252509;22;20202;-93
2022/05/31 14:21:54;;;;;;;2.77;2.20;;;10.80;99.90;;;;;;6252314;23;20506;-93
2022/05/31 14:24:27;;;;;;;3.63;2.47;;;11.00;99.90;;;;;;6262205;23;20171;-93
2022/05/31 14:27:02;;;;;;;3.20;2.90;;;11.10;99.90;;;;;;6261695;23;20172;-93
2022/05/31 14:29:36;;;;;;;3.47;3.17;;;11.10;99.90;;;;;;6273677;22;20167;-95